METAR

Letisková meteorologická správa METAR

Meteorologické informácie z ďalších profesionálnych meteorologických staníc SHMÚ zobrazené v tvare zodpovedajúcom pravidlám kódovania správ METAR sú uvedené v položke „METSYN

Informácie o správe METAR

24.06.2018 - 04:30 UTC

METAR LZIB 240430Z 29009KT 9999 FEW045 BKN060 14/09 Q1019 NOSIG=
METAR LZKZ 240430Z 02004KT 9999 BCFG FEW009 SCT050 11/09 Q1017
NOSIG=
METAR LZPP 240430Z 30006KT 9999 BKN035 13/09 Q1019=
METAR LZSL 240430Z 13002KT 9999 FEW036 09/08 Q1018=
METAR LZTT 240430Z 28010KT 9999 FEW050 BKN100 08/06 Q1017 NOSIG=
METAR LZZI 240430Z VRB01KT 9999 BKN007 BKN045 11/09 Q1018=

24.06.2018 - 04:00 UTC

METAR LZIB 240400Z 30010KT 9999 SCT047 BKN063 13/08 Q1019 NOSIG=
METAR LZKZ 240400Z VRB01KT 9999 BCFG FEW003 BKN050 10/09 Q1017=
METAR LZPP 240400Z 28005KT 9999 BKN035 13/09 Q1019=
METAR LZSL 240400Z 00000KT 9999 FEW034 09/07 Q1018=
METAR LZTT 240400Z 26008KT 9999 FEW050 BKN100 08/06 Q1017=
METAR LZZI 240400Z 22002KT 9999 FEW005 SCT047 BKN100 10/09 Q1018=

24.06.2018 - 04:00 UTC

METAR LZMC 240400Z 26002KT 9999 SCT042 BKN050 12/08
Q1020=
METAR LZPW 240400Z 21005KT 9999 FEW005 SCT050 BKN100
10/09 Q1017=

skok na menu ↑


skok na začiatok stránky ↑